Terminal Aerodrome Forecast
Issued by NWS Sioux Falls, SD

Home | Current Version | Previous Version | Graphics & Text | Print | Product List | Glossary On
Versions: 1 2 3 4 5 6 7 8 9 10 11 12 13 14 15 16 17 18 19 20 21 22 23 24
438
FTUS43 KFSD 242139 AAA
TAFFSD
TAF AMD
KFSD 242139Z 2422/2518 28010G18KT P6SM -SHRA SCT010 BKN015 OVC050
     FM250100 35008KT 4SM -SHRA BKN008 OVC012
     FM250600 34008KT 4SM SHRA OVC006=

USA.gov is the U.S. government's official web portal to all federal, state and local government web resources and services.